Flight Track Log - Related Links

Times and Time Zones

All times are in EDT time to prevent confusion due to time zone crossing. See the FDX1409 flight status page for this flight to view local times or setup timezone preferences in your user account.

Time Position Orientation Groundspeed Altitude Reporting Facility
EDT Latitude Longitude Course Direction KTS MPH feet Rate Location/Type
Sat 04:44:01 AM 35.0667 -89.9667 360° North 149 171 1,500  Level KMEM
Sat 04:44:37 AM 35.0833 -89.9667 360° North 171 197 2,100 1,500 Climbing KMEM
Sat 04:45:37 AM 35.1167 -89.9000 59° Northeast 268 308 3,900 2,300 Climbing KMEM
Sat 04:46:37 AM 35.0500 -89.8333 141° Southeast 301 346 6,700 2,435 Climbing KMEM
Sat 04:48:27 AM 34.9122 -89.7872 165° South 322 371 10,800 2,118 Climbing Memphis Center
Sat 04:49:27 AM 34.7931 -89.7578 169° South 352 405 12,700 1,900 Climbing Memphis Center
Sat 04:50:27 AM 34.7011 -89.7331 168° South 384 442 14,600 1,800 Climbing Memphis Center
Sat 04:51:27 AM 34.5903 -89.7011 167° South 399 459 16,300 1,850 Climbing Memphis Center
Sat 04:52:27 AM 34.4817 -89.6567 161° South 406 467 18,300 1,550 Climbing Memphis Center
Sat 04:53:27 AM 34.4017 -89.5417 130° Southeast 423 487 19,400 1,300 Climbing Memphis Center
Sat 04:54:27 AM 34.3236 -89.4192 128° Southeast 449 517 20,900 1,400 Climbing Memphis Center
Sat 04:55:27 AM 34.2411 -89.2944 129° Southeast 473 544 22,200 1,251 Climbing Memphis Center
Sat 05:00:46 AM 33.7840 -88.5980 129° Southeast 501 577 28,800 1,143 Climbing FlightAware ADS-B
Sat 05:01:24 AM 33.7360 -88.5240 128° Southeast 502 578 29,000 162 Climbing FlightAware ADS-B
Sat 05:02:00 AM 33.6920 -88.4570 128° Southeast 502 578 29,000 833 Level FlightAware ADS-B
Sat 05:02:36 AM 33.6280 -88.3620 129° Southeast 512 589 30,000 833 Climbing FlightAware ADS-B
Sat 05:03:12 AM 33.5840 -88.2940 128° Southeast 512 589 30,000  Level FlightAware ADS-B
Sat 05:03:48 AM 33.5390 -88.2250 128° Southeast 512 589 30,000  Level FlightAware ADS-B
Sat 05:04:22 AM 33.4970 -88.1610 128° Southeast 512 589 30,000  Level FlightAware ADS-B
Sat 05:04:58 AM 33.4520 -88.0920 128° Southeast 512 589 30,000  Level FlightAware ADS-B
Sat 05:05:36 AM 33.4050 -88.0200 128° Southeast 512 589 30,000  Level FlightAware ADS-B
Sat 05:06:12 AM 33.3600 -87.9520 128° Southeast 512 589 30,000 2,889 Level FlightAware ADS-B
Sat 05:06:57 AM 33.2320 -87.7750 131° Southeast 514 592 33,900 2,889 Climbing FlightAware ADS-B
Sat 05:07:33 AM 33.1860 -87.7070 129° Southeast 514 592 33,900  Level FlightAware ADS-B
Sat 05:08:09 AM 33.1400 -87.6400 129° Southeast 514 592 33,900 750 Level FlightAware ADS-B
Sat 05:09:01 AM 33.0480 -87.5050 129° Southeast 506 582 35,000 617 Climbing FlightAware ADS-B
Sat 05:09:56 AM 32.9600 -87.3780 130° Southeast 515 593 35,000  Level FlightAware ADS-B
Sat 05:10:38 AM 32.9040 -87.2960 129° Southeast 516 594 35,000  Level FlightAware ADS-B
Sat 05:11:14 AM 32.8580 -87.2280 129° Southeast 516 594 35,000  Level FlightAware ADS-B
Sat 05:11:51 AM 32.8110 -87.1590 129° Southeast 516 594 35,000  Level FlightAware ADS-B
Sat 05:12:27 AM 32.7650 -87.0910 129° Southeast 516 594 35,000  Level FlightAware ADS-B
Sat 05:13:06 AM 32.6690 -86.9590 131° Southeast 516 594 35,000  Level FlightAware ADS-B
Sat 05:13:51 AM 32.6080 -86.8680 128° Southeast 515 593 35,000  Level FlightAware ADS-B
Sat 05:14:28 AM 32.5600 -86.7990 130° Southeast 515 593 35,000  Level FlightAware ADS-B
Sat 05:15:04 AM 32.5140 -86.7320 129° Southeast 515 593 35,000  Level FlightAware ADS-B
Sat 05:15:40 AM 32.4690 -86.6650 129° Southeast 515 593 35,000  Level FlightAware ADS-B
Sat 05:16:16 AM 32.4230 -86.5980 129° Southeast 515 593 35,000  Level FlightAware ADS-B
Sat 05:16:52 AM 32.3770 -86.5310 129° Southeast 515 593 35,000  Level FlightAware ADS-B
Sat 05:17:28 AM 32.3310 -86.4640 129° Southeast 515 593 35,000  Level FlightAware ADS-B
Sat 05:18:12 AM 32.2120 -86.3050 131° Southeast 515 593 35,000  Level FlightAware ADS-B
Sat 05:18:50 AM 32.1390 -86.2220 136° Southeast 514 592 35,000  Level FlightAware ADS-B
Sat 05:19:32 AM 32.0690 -86.1360 134° Southeast 515 593 35,000  Level FlightAware ADS-B
Sat 05:20:18 AM 31.9990 -86.0520 134° Southeast 515 593 35,000  Level FlightAware ADS-B
Sat 05:21:11 AM 31.9100 -85.9480 135° Southeast 515 593 35,000  Level FlightAware ADS-B
Sat 05:21:48 AM 31.8580 -85.8840 134° Southeast 515 593 35,000  Level FlightAware ADS-B
Sat 05:22:32 AM 31.7650 -85.7760 135° Southeast 519 597 35,000  Level FlightAware ADS-B
Sat 05:23:25 AM 31.6850 -85.6790 134° Southeast 520 598 35,000  Level FlightAware ADS-B
Sat 05:24:01 AM 31.6340 -85.6170 134° Southeast 520 598 35,000  Level FlightAware ADS-B
Sat 05:24:37 AM 31.5830 -85.5550 134° Southeast 520 598 35,000  Level FlightAware ADS-B
Sat 05:25:13 AM 31.5310 -85.4930 135° Southeast 520 598 35,000  Level FlightAware ADS-B
Sat 05:25:49 AM 31.4800 -85.4310 134° Southeast 520 598 35,000  Level FlightAware ADS-B
Sat 05:26:23 AM 31.4320 -85.3720 134° Southeast 520 598 35,000  Level FlightAware ADS-B
Sat 05:27:00 AM 31.3790 -85.3080 134° Southeast 520 598 35,000  Level FlightAware ADS-B
Sat 05:27:36 AM 31.3280 -85.2460 134° Southeast 520 598 35,000  Level FlightAware ADS-B
Sat 05:28:12 AM 31.2770 -85.1850 134° Southeast 520 598 35,000  Level FlightAware ADS-B
Sat 05:28:48 AM 31.2260 -85.1230 134° Southeast 520 598 35,000  Level FlightAware ADS-B
Sat 05:29:24 AM 31.1750 -85.0610 134° Southeast 520 598 35,000  Level FlightAware ADS-B
Sat 05:30:01 AM 31.0680 -84.8260 118° Southeast 510 587 35,000  Level FlightAware ADS-B
Sat 05:30:35 AM 31.0160 -84.7550 131° Southeast 510 587 35,000  Level FlightAware ADS-B
Sat 05:31:20 AM 30.9510 -84.6640 130° Southeast 510 587 35,000  Level FlightAware ADS-B
Sat 05:31:51 AM 30.9000 -84.5950 131° Southeast 508 585 35,000  Level FlightAware ADS-B
Sat 05:32:01 AM 30.8852 -84.5746 130° Southeast 509 586 35,000  Level FlightAware ADS-B (KONZ)
Sat 05:32:34 AM 30.8337 -84.5057 131° Southeast 509 586 35,000  Level FlightAware ADS-B (KONZ)
Sat 05:33:04 AM 30.7900 -84.4450 130° Southeast 508 585 35,000  Level FlightAware ADS-B
Sat 05:33:24 AM 30.7577 -84.4019 131° Southeast 509 586 35,000  Level FlightAware ADS-B (KONZ)
Sat 05:33:55 AM 30.7107 -84.3374 130° Southeast 508 585 35,000  Level FlightAware ADS-B (KONZ)
Sat 05:34:26 AM 30.6632 -84.2729 131° Southeast 508 585 35,000 74 Level FlightAware ADS-B (KONZ)
Sat 05:35:16 AM 30.5919 -84.1780 131° Southeast 507 583 35,100  Climbing FlightAware ADS-B (KONZ)
Sat 05:35:55 AM 30.5267 -84.0890 130° Southeast 508 585 35,000 -76 Descending FlightAware ADS-B (KONZ)
Sat 05:36:35 AM 30.4649 -84.0061 131° Southeast 509 586 35,000  Level FlightAware ADS-B (KONZ)
Sat 05:37:06 AM 30.4177 -83.9421 130° Southeast 510 587 35,000  Level FlightAware ADS-B (KONZ)
Sat 05:37:46 AM 30.3563 -83.8593 131° Southeast 510 587 35,000  Level FlightAware ADS-B (KONZ)
Sat 05:38:18 AM 30.3080 -83.7930 130° Southeast 510 587 35,000  Level FlightAware ADS-B
Sat 05:38:38 AM 30.2764 -83.7520 132° Southeast 511 588 35,000  Level FlightAware ADS-B (KONZ)
Sat 05:39:30 AM 30.1960 -83.6450 131° Southeast 510 587 35,000 -143 Level FlightAware ADS-B
Sat 05:40:02 AM 30.1460 -83.5790 131° Southeast 505 581 34,800 -537 Descending FlightAware ADS-B
Sat 05:40:37 AM 30.0920 -83.5070 131° Southeast 505 581 34,400 -750 Descending FlightAware ADS-B
Sat 05:41:14 AM 30.0360 -83.4320 131° Southeast 499 574 33,900 -822 Descending FlightAware ADS-B
Sat 05:41:50 AM 29.9810 -83.3600 131° Southeast 496 571 33,400 -720 Descending FlightAware ADS-B
Sat 05:42:29 AM 29.9230 -83.2830 131° Southeast 491 565 33,000 -711 Descending FlightAware ADS-B
Sat 05:43:06 AM 29.8680 -83.2090 131° Southeast 493 567 32,500 -740 Descending FlightAware ADS-B
Sat 05:43:42 AM 29.8140 -83.1380 131° Southeast 493 567 32,100 -716 Descending FlightAware ADS-B
Sat 05:44:13 AM 29.7670 -83.0770 132° Southeast 492 566 31,700 -783 Descending FlightAware ADS-B
Sat 05:44:51 AM 29.7100 -83.0020 131° Southeast 491 565 31,200 -716 Descending FlightAware ADS-B
Sat 05:45:20 AM 29.6680 -82.9460 131° Southeast 496 571 30,900 -686 Descending FlightAware ADS-B
Sat 05:46:01 AM 29.6040 -82.8630 132° Southeast 499 574 30,400 -935 Descending FlightAware ADS-B
Sat 05:46:37 AM 29.5480 -82.7910 132° Southeast 501 577 29,700 -1,970 Descending FlightAware ADS-B
Sat 05:47:08 AM 29.5000 -82.7290 132° Southeast 502 578 28,200 -3,134 Descending FlightAware ADS-B
Sat 05:47:44 AM 29.4440 -82.6560 131° Southeast 514 592 26,200 -2,957 Descending FlightAware ADS-B
Sat 05:48:17 AM 29.3940 -82.5880 130° Southeast 510 587 24,800 -2,559 Descending FlightAware ADS-B
Sat 05:48:52 AM 29.3400 -82.5180 131° Southeast 496 571 23,300 -2,583 Descending FlightAware ADS-B
Sat 05:49:29 AM 29.2850 -82.4480 132° Southeast 485 558 21,700 -2,676 Descending FlightAware ADS-B
Sat 05:50:06 AM 29.2290 -82.3760 132° Southeast 473 544 20,000 -2,609 Descending FlightAware ADS-B
Sat 05:50:38 AM 29.1830 -82.3170 132° Southeast 461 531 18,700 -2,522 Descending FlightAware ADS-B
Sat 05:51:15 AM 29.1310 -82.2500 132° Southeast 452 520 17,100 -2,261 Descending FlightAware ADS-B
Sat 05:51:47 AM 29.0880 -82.1930 131° Southeast 433 498 16,100 -1,941 Descending FlightAware ADS-B
Sat 05:52:23 AM 29.0410 -82.1340 132° Southeast 423 487 14,900 -2,351 Descending FlightAware ADS-B
Sat 05:53:01 AM 28.9920 -82.0700 131° Southeast 407 468 13,200 -2,914 Descending FlightAware ADS-B
Sat 05:53:33 AM 28.9520 -82.0160 130° Southeast 403 464 11,500 -1,913 Descending FlightAware ADS-B
Sat 05:54:10 AM 28.9070 -81.9620 134° Southeast 373 429 11,000 -417 Descending FlightAware ADS-B
Sat 05:54:45 AM 28.8690 -81.9080 129° Southeast 380 437 11,000  Level FlightAware ADS-B
Sat 05:55:18 AM 28.8370 -81.8530 124° Southeast 369 425 11,000  Level FlightAware ADS-B
Sat 05:55:52 AM 28.8070 -81.8000 123° Southeast 327 376 11,000  Level FlightAware ADS-B
Sat 05:56:29 AM 28.7780 -81.7500 123° Southeast 305 351 11,000 -162 Level FlightAware ADS-B
Sat 05:57:06 AM 28.7480 -81.7000 124° Southeast 306 352 10,800 -493 Descending FlightAware ADS-B
Sat 05:57:42 AM 28.7200 -81.6520 124° Southeast 302 348 10,400 -806 Descending FlightAware ADS-B
Sat 05:58:13 AM 28.6990 -81.6090 119° Southeast 293 337 9,900 -873 Descending FlightAware ADS-B
Sat 05:58:37 AM 28.6830 -81.5770 120° Southeast 288 331 9,600 -913 Descending FlightAware ADS-B
Sat 05:58:59 AM 28.6680 -81.5490 121° Southeast 286 329 9,200 -1,024 Descending FlightAware ADS-B
Sat 05:59:18 AM 28.6550 -81.5240 121° Southeast 289 333 8,900 -878 Descending FlightAware ADS-B
Sat 05:59:40 AM 28.6400 -81.4950 121° Southeast 291 335 8,600 -878 Descending FlightAware ADS-B
Sat 05:59:59 AM 28.6270 -81.4700 121° Southeast 291 335 8,300 -878 Descending FlightAware ADS-B
Sat 06:00:21 AM 28.6110 -81.4420 123° Southeast 283 326 8,000 -828 Descending FlightAware ADS-B
Sat 06:00:28 AM 28.6040 -81.4350 139° Southeast 281 323 7,900 -800 Descending FlightAware ADS-B
Sat 06:00:36 AM 28.5940 -81.4290 152° Southeast 278 320 7,800 -1,000 Descending FlightAware ADS-B
Sat 06:00:40 AM 28.5900 -81.4270 156° South 278 320 7,700 -923 Descending FlightAware ADS-B
Sat 06:00:49 AM 28.5790 -81.4240 167° South 276 318 7,600 -1,135 Descending FlightAware ADS-B
Sat 06:01:17 AM 28.5430 -81.4250 181° South 273 314 7,000 -1,174 Descending FlightAware ADS-B
Sat 06:01:35 AM 28.5210 -81.4250 180° South 272 313 6,700 -1,050 Descending FlightAware ADS-B
Sat 06:01:57 AM 28.4930 -81.4250 180° South 274 315 6,300 -1,116 Descending FlightAware ADS-B
Sat 06:02:18 AM 28.4650 -81.4250 180° South 276 318 5,900 -1,053 Descending FlightAware ADS-B
Sat 06:02:54 AM 28.4190 -81.4240 179° South 271 312 5,300 -1,034 Descending FlightAware ADS-B
Sat 06:03:16 AM 28.3920 -81.4240 180° South 268 308 4,900 -1,000 Descending FlightAware ADS-B
Sat 06:03:36 AM 28.3680 -81.4240 180° South 258 297 4,600 -1,000 Descending FlightAware ADS-B
Sat 06:03:58 AM 28.3420 -81.4230 178° South 249 287 4,200 -1,256 Descending FlightAware ADS-B
Sat 06:04:19 AM 28.3170 -81.4230 180° South 243 280 3,700 -1,395 Descending FlightAware ADS-B
Sat 06:04:41 AM 28.2940 -81.4210 176° South 238 274 3,200 -1,556 Descending FlightAware ADS-B
Sat 06:04:46 AM 28.2890 -81.4180 152° Southeast 235 270 3,000 -1,846 Descending FlightAware ADS-B
Sat 06:04:54 AM 28.2820 -81.4110 139° Southeast 233 268 2,800 -1,125 Descending FlightAware ADS-B
Sat 06:05:02 AM 28.2780 -81.4030 120° Southeast 230 265 2,700 -632 Descending FlightAware ADS-B
Sat 06:05:13 AM 28.2760 -81.3900 100° East 223 257 2,600 -909 Descending FlightAware ADS-B
Sat 06:05:35 AM 28.2780 -81.3650 85° East 214 246 2,200 -1,161 Descending FlightAware ADS-B
Sat 06:05:44 AM 28.2800 -81.3560 76° East 216 249 2,000 -1,286 Descending FlightAware ADS-B
Sat 06:05:49 AM 28.2830 -81.3520 50° Northeast 216 249 1,900 -1,385 Descending FlightAware ADS-B
Sat 06:05:57 AM 28.2880 -81.3450 51° Northeast 215 247 1,700 -324 Descending FlightAware ADS-B
Sat 06:06:26 AM 28.3050 -81.3240 47° Northeast 215 247 1,700 -333 Level FlightAware ADS-B
Sat 06:06:33 AM 28.3200 -81.3260 353° North 197 227 1,500 -375 Descending FlightAware ADS-B
Sat 06:06:58 AM 28.3390 -81.3220 10° North 197 227 1,500 -456 Level FlightAware ADS-B
Sat 06:07:52 AM 28.3833 -81.3333 10° North 149 171 900 -667 Descending Orlando TRACON
Sat 06:09:00 AM 28.4167 -81.3000 24° Northeast  Level FlightAware Approximate
Sat 06:16:00 AM 28.4294 -81.3090 24° Northeast  Level Estimated
Sat 06:17:00 AM 28.4294 -81.3090 24° Northeast  Level Estimated
Sat 06:18:00 AM 28.4294 -81.3090 24° Northeast  Level Estimated
Sat 06:19:00 AM 28.4294 -81.3090 24° Northeast  Level Estimated
Sat 06:20:00 AM 28.4294 -81.3090 24° Northeast  Level Estimated

Login

Don't have an account? Register now (free) for customized features, flight alerts, and more!